sensor_id;sensor_type;location;lat;lon;timestamp;P1;durP1;ratioP1;P2;durP2;ratioP2
23099;SDS011;53791;50.696;4.396;2023-04-25T00:01:36;3.55;;;2.12;;
23099;SDS011;53791;50.696;4.396;2023-04-25T00:04:04;2.45;;;1.50;;
23099;SDS011;53791;50.696;4.396;2023-04-25T00:06:32;3.02;;;1.82;;
23099;SDS011;53791;50.696;4.396;2023-04-25T00:09:03;3.25;;;1.57;;
23099;SDS011;53791;50.696;4.396;2023-04-25T00:11:33;3.08;;;1.65;;
23099;SDS011;53791;50.696;4.396;2023-04-25T00:14:00;3.37;;;1.60;;
23099;SDS011;53791;50.696;4.396;2023-04-25T00:16:28;1.92;;;1.42;;
23099;SDS011;53791;50.696;4.396;2023-04-25T00:18:58;2.17;;;1.50;;
23099;SDS011;53791;50.696;4.396;2023-04-25T00:21:27;6.67;;;1.80;;
23099;SDS011;53791;50.696;4.396;2023-04-25T00:23:55;2.92;;;1.87;;
23099;SDS011;53791;50.696;4.396;2023-04-25T00:26:22;3.62;;;1.85;;
23099;SDS011;53791;50.696;4.396;2023-04-25T00:28:50;3.27;;;2.35;;
23099;SDS011;53791;50.696;4.396;2023-04-25T00:31:18;3.42;;;1.82;;
23099;SDS011;53791;50.696;4.396;2023-04-25T00:33:45;3.42;;;1.42;;
23099;SDS011;53791;50.696;4.396;2023-04-25T00:36:13;1.87;;;1.10;;
23099;SDS011;53791;50.696;4.396;2023-04-25T00:38:42;3.35;;;1.62;;
23099;SDS011;53791;50.696;4.396;2023-04-25T00:41:10;1.90;;;1.35;;
23099;SDS011;53791;50.696;4.396;2023-04-25T00:43:38;2.00;;;1.35;;
23099;SDS011;53791;50.696;4.396;2023-04-25T00:46:07;2.20;;;1.52;;
23099;SDS011;53791;50.696;4.396;2023-04-25T00:48:34;6.37;;;2.33;;
23099;SDS011;53791;50.696;4.396;2023-04-25T00:51:02;2.70;;;1.77;;
23099;SDS011;53791;50.696;4.396;2023-04-25T00:53:30;5.00;;;1.75;;
23099;SDS011;53791;50.696;4.396;2023-04-25T00:55:58;2.00;;;1.27;;
23099;SDS011;53791;50.696;4.396;2023-04-25T00:58:26;1.60;;;1.10;;
23099;SDS011;53791;50.696;4.396;2023-04-25T01:00:53;1.90;;;1.45;;
23099;SDS011;53791;50.696;4.396;2023-04-25T01:03:23;1.60;;;1.12;;
23099;SDS011;53791;50.696;4.396;2023-04-25T01:05:51;2.12;;;1.67;;
23099;SDS011;53791;50.696;4.396;2023-04-25T01:08:21;1.52;;;0.93;;
23099;SDS011;53791;50.696;4.396;2023-04-25T01:10:52;2.15;;;1.57;;
23099;SDS011;53791;50.696;4.396;2023-04-25T01:13:22;2.67;;;2.08;;
23099;SDS011;53791;50.696;4.396;2023-04-25T01:15:49;2.98;;;1.62;;
23099;SDS011;53791;50.696;4.396;2023-04-25T01:18:17;2.22;;;1.50;;
23099;SDS011;53791;50.696;4.396;2023-04-25T01:20:46;8.23;;;2.08;;
23099;SDS011;53791;50.696;4.396;2023-04-25T01:23:15;2.65;;;1.55;;
23099;SDS011;53791;50.696;4.396;2023-04-25T01:25:43;2.00;;;1.52;;
23099;SDS011;53791;50.696;4.396;2023-04-25T01:28:11;2.40;;;1.65;;
23099;SDS011;53791;50.696;4.396;2023-04-25T01:30:39;5.97;;;2.10;;
23099;SDS011;53791;50.696;4.396;2023-04-25T01:33:08;1.60;;;1.10;;
23099;SDS011;53791;50.696;4.396;2023-04-25T01:35:35;3.25;;;1.52;;
23099;SDS011;53791;50.696;4.396;2023-04-25T01:38:03;4.80;;;1.52;;
23099;SDS011;53791;50.696;4.396;2023-04-25T01:40:30;2.20;;;1.62;;
23099;SDS011;53791;50.696;4.396;2023-04-25T01:43:00;1.60;;;1.10;;
23099;SDS011;53791;50.696;4.396;2023-04-25T01:45:27;2.95;;;1.90;;
23099;SDS011;53791;50.696;4.396;2023-04-25T01:47:55;2.50;;;1.47;;
23099;SDS011;53791;50.696;4.396;2023-04-25T01:50:25;2.33;;;1.67;;
23099;SDS011;53791;50.696;4.396;2023-04-25T01:52:52;2.25;;;1.70;;
23099;SDS011;53791;50.696;4.396;2023-04-25T01:55:21;3.05;;;1.45;;
23099;SDS011;53791;50.696;4.396;2023-04-25T01:57:49;14.23;;;3.00;;
23099;SDS011;53791;50.696;4.396;2023-04-25T02:00:16;1.98;;;1.47;;
23099;SDS011;53791;50.696;4.396;2023-04-25T02:02:44;2.25;;;1.45;;
23099;SDS011;53791;50.696;4.396;2023-04-25T02:05:12;1.70;;;1.10;;
23099;SDS011;53791;50.696;4.396;2023-04-25T02:07:39;2.72;;;1.75;;
23099;SDS011;53791;50.696;4.396;2023-04-25T02:10:07;1.95;;;1.40;;
23099;SDS011;53791;50.696;4.396;2023-04-25T02:12:35;1.70;;;1.10;;
23099;SDS011;53791;50.696;4.396;2023-04-25T02:15:03;1.65;;;1.10;;
23099;SDS011;53791;50.696;4.396;2023-04-25T02:17:31;1.80;;;1.20;;
23099;SDS011;53791;50.696;4.396;2023-04-25T02:19:59;2.08;;;1.47;;
23099;SDS011;53791;50.696;4.396;2023-04-25T02:22:26;3.52;;;1.72;;
23099;SDS011;53791;50.696;4.396;2023-04-25T02:24:56;1.95;;;1.32;;
23099;SDS011;53791;50.696;4.396;2023-04-25T02:27:23;3.22;;;1.80;;
23099;SDS011;53791;50.696;4.396;2023-04-25T02:29:51;3.90;;;2.12;;
23099;SDS011;53791;50.696;4.396;2023-04-25T02:32:18;2.98;;;2.00;;
23099;SDS011;53791;50.696;4.396;2023-04-25T02:34:46;1.70;;;1.20;;
23099;SDS011;53791;50.696;4.396;2023-04-25T02:37:13;2.25;;;1.80;;
23099;SDS011;53791;50.696;4.396;2023-04-25T02:39:41;2.05;;;1.47;;
23099;SDS011;53791;50.696;4.396;2023-04-25T02:42:09;4.05;;;2.05;;
23099;SDS011;53791;50.696;4.396;2023-04-25T02:44:37;2.27;;;1.47;;
23099;SDS011;53791;50.696;4.396;2023-04-25T02:47:04;2.87;;;2.05;;
23099;SDS011;53791;50.696;4.396;2023-04-25T02:49:32;2.47;;;1.98;;
23099;SDS011;53791;50.696;4.396;2023-04-25T02:51:59;2.47;;;1.98;;
23099;SDS011;53791;50.696;4.396;2023-04-25T02:54:28;3.70;;;2.62;;
23099;SDS011;53791;50.696;4.396;2023-04-25T02:56:56;2.40;;;2.20;;
23099;SDS011;53791;50.696;4.396;2023-04-25T02:59:23;2.35;;;2.15;;
23099;SDS011;53791;50.696;4.396;2023-04-25T03:01:51;2.55;;;2.30;;
23099;SDS011;53791;50.696;4.396;2023-04-25T03:04:18;4.08;;;2.52;;
23099;SDS011;53791;50.696;4.396;2023-04-25T03:06:46;2.98;;;2.67;;
23099;SDS011;53791;50.696;4.396;2023-04-25T03:09:14;2.25;;;2.05;;
23099;SDS011;53791;50.696;4.396;2023-04-25T03:11:41;2.80;;;2.55;;
23099;SDS011;53791;50.696;4.396;2023-04-25T03:14:10;3.12;;;2.77;;
23099;SDS011;53791;50.696;4.396;2023-04-25T03:16:38;2.62;;;2.42;;
23099;SDS011;53791;50.696;4.396;2023-04-25T03:19:06;2.12;;;1.92;;
23099;SDS011;53791;50.696;4.396;2023-04-25T03:21:35;3.67;;;2.62;;
23099;SDS011;53791;50.696;4.396;2023-04-25T03:24:03;2.27;;;2.08;;
23099;SDS011;53791;50.696;4.396;2023-04-25T03:26:31;5.97;;;2.85;;
23099;SDS011;53791;50.696;4.396;2023-04-25T03:28:59;4.65;;;2.87;;
23099;SDS011;53791;50.696;4.396;2023-04-25T03:31:26;3.52;;;2.83;;
23099;SDS011;53791;50.696;4.396;2023-04-25T03:33:54;2.80;;;2.52;;
23099;SDS011;53791;50.696;4.396;2023-04-25T03:36:21;3.05;;;2.70;;
23099;SDS011;53791;50.696;4.396;2023-04-25T03:38:49;4.70;;;2.80;;
23099;SDS011;53791;50.696;4.396;2023-04-25T03:41:16;3.45;;;2.92;;
23099;SDS011;53791;50.696;4.396;2023-04-25T03:43:44;3.10;;;2.50;;
23099;SDS011;53791;50.696;4.396;2023-04-25T03:46:11;2.90;;;2.67;;
23099;SDS011;53791;50.696;4.396;2023-04-25T03:48:39;3.65;;;3.35;;
23099;SDS011;53791;50.696;4.396;2023-04-25T03:51:06;3.35;;;3.05;;
23099;SDS011;53791;50.696;4.396;2023-04-25T03:53:34;2.65;;;2.45;;
23099;SDS011;53791;50.696;4.396;2023-04-25T03:56:01;3.30;;;2.75;;
23099;SDS011;53791;50.696;4.396;2023-04-25T03:58:29;2.70;;;2.47;;
23099;SDS011;53791;50.696;4.396;2023-04-25T04:00:56;2.75;;;2.55;;
23099;SDS011;53791;50.696;4.396;2023-04-25T04:03:24;2.60;;;2.40;;
23099;SDS011;53791;50.696;4.396;2023-04-25T04:05:51;2.50;;;2.30;;
23099;SDS011;53791;50.696;4.396;2023-04-25T04:08:19;2.70;;;2.50;;
23099;SDS011;53791;50.696;4.396;2023-04-25T04:10:46;5.45;;;2.85;;
23099;SDS011;53791;50.696;4.396;2023-04-25T04:13:14;2.90;;;2.52;;
23099;SDS011;53791;50.696;4.396;2023-04-25T04:15:41;3.12;;;2.83;;
23099;SDS011;53791;50.696;4.396;2023-04-25T04:18:09;2.40;;;2.20;;
23099;SDS011;53791;50.696;4.396;2023-04-25T04:20:36;3.10;;;2.80;;
23099;SDS011;53791;50.696;4.396;2023-04-25T04:23:04;8.60;;;3.58;;
23099;SDS011;53791;50.696;4.396;2023-04-25T04:25:31;2.40;;;2.20;;
23099;SDS011;53791;50.696;4.396;2023-04-25T04:28:00;2.98;;;2.67;;
23099;SDS011;53791;50.696;4.396;2023-04-25T04:30:27;2.85;;;2.58;;
23099;SDS011;53791;50.696;4.396;2023-04-25T04:32:59;5.33;;;3.37;;
23099;SDS011;53791;50.696;4.396;2023-04-25T04:35:26;3.30;;;3.00;;
23099;SDS011;53791;50.696;4.396;2023-04-25T04:37:54;3.35;;;2.87;;
23099;SDS011;53791;50.696;4.396;2023-04-25T04:40:21;3.92;;;2.60;;
23099;SDS011;53791;50.696;4.396;2023-04-25T04:42:49;4.08;;;3.67;;
23099;SDS011;53791;50.696;4.396;2023-04-25T04:45:16;2.70;;;2.50;;
23099;SDS011;53791;50.696;4.396;2023-04-25T04:47:44;3.42;;;3.12;;
23099;SDS011;53791;50.696;4.396;2023-04-25T04:50:12;3.35;;;3.05;;
23099;SDS011;53791;50.696;4.396;2023-04-25T04:52:40;3.60;;;3.05;;
23099;SDS011;53791;50.696;4.396;2023-04-25T04:55:08;3.15;;;2.85;;
23099;SDS011;53791;50.696;4.396;2023-04-25T04:57:45;3.50;;;3.17;;
23099;SDS011;53791;50.696;4.396;2023-04-25T05:00:12;5.17;;;3.55;;
23099;SDS011;53791;50.696;4.396;2023-04-25T05:02:41;3.10;;;2.80;;
23099;SDS011;53791;50.696;4.396;2023-04-25T05:05:08;4.92;;;2.83;;
23099;SDS011;53791;50.696;4.396;2023-04-25T05:07:36;3.08;;;2.77;;
23099;SDS011;53791;50.696;4.396;2023-04-25T05:10:03;2.60;;;2.40;;
23099;SDS011;53791;50.696;4.396;2023-04-25T05:12:31;8.68;;;3.95;;
23099;SDS011;53791;50.696;4.396;2023-04-25T05:14:59;3.90;;;2.85;;
23099;SDS011;53791;50.696;4.396;2023-04-25T05:17:26;3.17;;;2.87;;
23099;SDS011;53791;50.696;4.396;2023-04-25T05:19:54;2.60;;;2.40;;
23099;SDS011;53791;50.696;4.396;2023-04-25T05:22:22;4.60;;;3.50;;
23099;SDS011;53791;50.696;4.396;2023-04-25T05:24:50;3.12;;;2.83;;
23099;SDS011;53791;50.696;4.396;2023-04-25T05:27:17;2.60;;;2.40;;
23099;SDS011;53791;50.696;4.396;2023-04-25T05:29:45;2.62;;;2.40;;
23099;SDS011;53791;50.696;4.396;2023-04-25T05:32:13;2.83;;;2.62;;
23099;SDS011;53791;50.696;4.396;2023-04-25T05:34:40;4.72;;;3.10;;
23099;SDS011;53791;50.696;4.396;2023-04-25T05:37:08;2.72;;;2.52;;
23099;SDS011;53791;50.696;4.396;2023-04-25T05:39:36;2.98;;;2.67;;
23099;SDS011;53791;50.696;4.396;2023-04-25T05:42:03;2.62;;;2.42;;
23099;SDS011;53791;50.696;4.396;2023-04-25T05:44:31;3.00;;;2.70;;
23099;SDS011;53791;50.696;4.396;2023-04-25T05:46:58;5.10;;;3.67;;
23099;SDS011;53791;50.696;4.396;2023-04-25T05:49:26;3.55;;;3.02;;
23099;SDS011;53791;50.696;4.396;2023-04-25T05:51:53;3.02;;;2.72;;
23099;SDS011;53791;50.696;4.396;2023-04-25T05:54:21;20.40;;;3.35;;
23099;SDS011;53791;50.696;4.396;2023-04-25T05:56:48;5.40;;;3.72;;
23099;SDS011;53791;50.696;4.396;2023-04-25T05:59:17;3.65;;;2.58;;
23099;SDS011;53791;50.696;4.396;2023-04-25T06:01:44;2.70;;;2.50;;
23099;SDS011;53791;50.696;4.396;2023-04-25T06:04:12;5.10;;;3.40;;
23099;SDS011;53791;50.696;4.396;2023-04-25T06:06:40;4.62;;;3.45;;
23099;SDS011;53791;50.696;4.396;2023-04-25T06:09:07;3.70;;;2.98;;
23099;SDS011;53791;50.696;4.396;2023-04-25T06:11:35;3.05;;;2.75;;
23099;SDS011;53791;50.696;4.396;2023-04-25T06:14:02;5.20;;;3.67;;
23099;SDS011;53791;50.696;4.396;2023-04-25T06:16:30;3.05;;;2.75;;
23099;SDS011;53791;50.696;4.396;2023-04-25T06:18:58;2.67;;;2.47;;
23099;SDS011;53791;50.696;4.396;2023-04-25T06:21:25;2.98;;;2.62;;
23099;SDS011;53791;50.696;4.396;2023-04-25T06:23:53;3.20;;;2.72;;
23099;SDS011;53791;50.696;4.396;2023-04-25T06:26:20;3.42;;;2.72;;
23099;SDS011;53791;50.696;4.396;2023-04-25T06:28:55;5.72;;;3.22;;
23099;SDS011;53791;50.696;4.396;2023-04-25T06:31:18;4.62;;;2.80;;
23099;SDS011;53791;50.696;4.396;2023-04-25T06:33:46;3.27;;;2.65;;
23099;SDS011;53791;50.696;4.396;2023-04-25T06:36:14;2.67;;;2.40;;
23099;SDS011;53791;50.696;4.396;2023-04-25T06:38:41;3.12;;;2.75;;
23099;SDS011;53791;50.696;4.396;2023-04-25T06:41:09;2.45;;;2.25;;
23099;SDS011;53791;50.696;4.396;2023-04-25T06:43:36;2.40;;;2.20;;
23099;SDS011;53791;50.696;4.396;2023-04-25T06:46:04;3.35;;;3.02;;
23099;SDS011;53791;50.696;4.396;2023-04-25T06:48:31;2.92;;;2.40;;
23099;SDS011;53791;50.696;4.396;2023-04-25T06:50:59;2.47;;;2.25;;
23099;SDS011;53791;50.696;4.396;2023-04-25T06:53:26;2.95;;;2.45;;
23099;SDS011;53791;50.696;4.396;2023-04-25T06:55:54;2.72;;;2.42;;
23099;SDS011;53791;50.696;4.396;2023-04-25T06:58:22;3.05;;;2.67;;
23099;SDS011;53791;50.696;4.396;2023-04-25T07:00:58;3.58;;;2.90;;
23099;SDS011;53791;50.696;4.396;2023-04-25T07:03:25;2.62;;;2.35;;
23099;SDS011;53791;50.696;4.396;2023-04-25T07:05:53;3.55;;;2.50;;
23099;SDS011;53791;50.696;4.396;2023-04-25T07:08:21;2.72;;;2.40;;
23099;SDS011;53791;50.696;4.396;2023-04-25T07:10:48;2.30;;;2.10;;
23099;SDS011;53791;50.696;4.396;2023-04-25T07:13:16;5.08;;;3.15;;
23099;SDS011;53791;50.696;4.396;2023-04-25T07:15:43;19.70;;;3.08;;
23099;SDS011;53791;50.696;4.396;2023-04-25T07:18:11;22.82;;;3.33;;
23099;SDS011;53791;50.696;4.396;2023-04-25T07:20:38;2.37;;;1.85;;
23099;SDS011;53791;50.696;4.396;2023-04-25T07:23:06;2.47;;;2.12;;
23099;SDS011;53791;50.696;4.396;2023-04-25T07:25:33;2.80;;;2.05;;
23099;SDS011;53791;50.696;4.396;2023-04-25T07:28:01;2.55;;;2.02;;
23099;SDS011;53791;50.696;4.396;2023-04-25T07:30:29;5.45;;;2.87;;
23099;SDS011;53791;50.696;4.396;2023-04-25T07:32:56;2.35;;;1.90;;
23099;SDS011;53791;50.696;4.396;2023-04-25T07:35:24;1.80;;;1.37;;
23099;SDS011;53791;50.696;4.396;2023-04-25T07:37:51;2.50;;;2.25;;
23099;SDS011;53791;50.696;4.396;2023-04-25T07:40:19;5.05;;;2.62;;
23099;SDS011;53791;50.696;4.396;2023-04-25T07:42:47;2.00;;;1.60;;
23099;SDS011;53791;50.696;4.396;2023-04-25T07:45:14;2.05;;;1.60;;
23099;SDS011;53791;50.696;4.396;2023-04-25T07:47:42;2.30;;;1.72;;
23099;SDS011;53791;50.696;4.396;2023-04-25T07:50:10;2.67;;;1.98;;
23099;SDS011;53791;50.696;4.396;2023-04-25T07:52:38;2.83;;;1.82;;
23099;SDS011;53791;50.696;4.396;2023-04-25T07:55:05;2.90;;;1.60;;
23099;SDS011;53791;50.696;4.396;2023-04-25T07:57:33;3.15;;;1.60;;
23099;SDS011;53791;50.696;4.396;2023-04-25T08:00:01;9.48;;;2.62;;
23099;SDS011;53791;50.696;4.396;2023-04-25T08:02:30;1.70;;;1.17;;
23099;SDS011;53791;50.696;4.396;2023-04-25T08:04:57;5.70;;;2.15;;
23099;SDS011;53791;50.696;4.396;2023-04-25T08:07:25;2.10;;;1.55;;
23099;SDS011;53791;50.696;4.396;2023-04-25T08:09:53;2.00;;;1.37;;
23099;SDS011;53791;50.696;4.396;2023-04-25T08:12:21;2.10;;;1.40;;
23099;SDS011;53791;50.696;4.396;2023-04-25T08:14:48;2.00;;;1.42;;
23099;SDS011;53791;50.696;4.396;2023-04-25T08:17:36;2.22;;;1.85;;
23099;SDS011;53791;50.696;4.396;2023-04-25T08:20:03;4.45;;;1.90;;
23099;SDS011;53791;50.696;4.396;2023-04-25T08:22:31;4.28;;;1.82;;
23099;SDS011;53791;50.696;4.396;2023-04-25T08:24:59;5.70;;;2.05;;
23099;SDS011;53791;50.696;4.396;2023-04-25T08:27:27;2.35;;;1.70;;
23099;SDS011;53791;50.696;4.396;2023-04-25T08:29:54;3.70;;;2.15;;
23099;SDS011;53791;50.696;4.396;2023-04-25T08:32:22;8.80;;;1.98;;
23099;SDS011;53791;50.696;4.396;2023-04-25T08:34:49;3.00;;;1.35;;
23099;SDS011;53791;50.696;4.396;2023-04-25T08:37:18;3.70;;;1.90;;
23099;SDS011;53791;50.696;4.396;2023-04-25T08:39:46;3.08;;;1.98;;
23099;SDS011;53791;50.696;4.396;2023-04-25T08:42:14;5.15;;;1.92;;
23099;SDS011;53791;50.696;4.396;2023-04-25T08:44:42;2.70;;;1.67;;
23099;SDS011;53791;50.696;4.396;2023-04-25T08:47:12;17.15;;;1.92;;
23099;SDS011;53791;50.696;4.396;2023-04-25T08:49:39;4.03;;;1.92;;
23099;SDS011;53791;50.696;4.396;2023-04-25T08:52:08;1.90;;;1.40;;
23099;SDS011;53791;50.696;4.396;2023-04-25T08:54:38;2.92;;;1.85;;
23099;SDS011;53791;50.696;4.396;2023-04-25T08:57:10;2.80;;;1.77;;
23099;SDS011;53791;50.696;4.396;2023-04-25T08:59:39;9.28;;;3.00;;
23099;SDS011;53791;50.696;4.396;2023-04-25T09:02:08;2.15;;;1.70;;
23099;SDS011;53791;50.696;4.396;2023-04-25T09:04:40;1.98;;;1.55;;
23099;SDS011;53791;50.696;4.396;2023-04-25T09:07:09;2.08;;;1.47;;
23099;SDS011;53791;50.696;4.396;2023-04-25T09:09:37;3.33;;;1.92;;
23099;SDS011;53791;50.696;4.396;2023-04-25T09:12:05;2.08;;;1.60;;
23099;SDS011;53791;50.696;4.396;2023-04-25T09:14:34;2.58;;;2.10;;
23099;SDS011;53791;50.696;4.396;2023-04-25T09:17:03;2.87;;;2.08;;
23099;SDS011;53791;50.696;4.396;2023-04-25T09:19:36;4.08;;;1.85;;
23099;SDS011;53791;50.696;4.396;2023-04-25T09:22:07;3.12;;;2.00;;
23099;SDS011;53791;50.696;4.396;2023-04-25T09:24:38;2.77;;;1.77;;
23099;SDS011;53791;50.696;4.396;2023-04-25T09:27:10;2.10;;;1.65;;
23099;SDS011;53791;50.696;4.396;2023-04-25T09:29:39;1.92;;;1.40;;
23099;SDS011;53791;50.696;4.396;2023-04-25T09:32:18;2.47;;;1.85;;
23099;SDS011;53791;50.696;4.396;2023-04-25T09:34:48;1.82;;;1.30;;
23099;SDS011;53791;50.696;4.396;2023-04-25T09:37:17;1.90;;;1.32;;
23099;SDS011;53791;50.696;4.396;2023-04-25T09:39:49;2.60;;;1.72;;
23099;SDS011;53791;50.696;4.396;2023-04-25T09:42:22;2.08;;;1.37;;
23099;SDS011;53791;50.696;4.396;2023-04-25T09:44:51;2.15;;;1.50;;
23099;SDS011;53791;50.696;4.396;2023-04-25T09:47:20;1.77;;;1.07;;
23099;SDS011;53791;50.696;4.396;2023-04-25T09:49:49;2.20;;;1.35;;
23099;SDS011;53791;50.696;4.396;2023-04-25T09:52:23;1.87;;;1.35;;
23099;SDS011;53791;50.696;4.396;2023-04-25T09:54:48;2.70;;;1.47;;
23099;SDS011;53791;50.696;4.396;2023-04-25T09:57:20;2.27;;;1.45;;
23099;SDS011;53791;50.696;4.396;2023-04-25T09:59:50;2.12;;;1.35;;
23099;SDS011;53791;50.696;4.396;2023-04-25T10:02:20;4.10;;;1.85;;
23099;SDS011;53791;50.696;4.396;2023-04-25T10:04:50;2.50;;;1.30;;
23099;SDS011;53791;50.696;4.396;2023-04-25T10:07:29;2.00;;;1.32;;
23099;SDS011;53791;50.696;4.396;2023-04-25T10:09:55;7.35;;;1.57;;
23099;SDS011;53791;50.696;4.396;2023-04-25T10:12:28;3.05;;;1.65;;
23099;SDS011;53791;50.696;4.396;2023-04-25T10:15:00;1.55;;;1.00;;
23099;SDS011;53791;50.696;4.396;2023-04-25T10:17:38;1.87;;;1.30;;
23099;SDS011;53791;50.696;4.396;2023-04-25T10:20:06;3.90;;;2.02;;
23099;SDS011;53791;50.696;4.396;2023-04-25T10:22:37;2.42;;;1.70;;
23099;SDS011;53791;50.696;4.396;2023-04-25T10:25:06;5.15;;;2.37;;
23099;SDS011;53791;50.696;4.396;2023-04-25T10:27:35;2.67;;;1.55;;
23099;SDS011;53791;50.696;4.396;2023-04-25T10:30:15;3.15;;;1.80;;
23099;SDS011;53791;50.696;4.396;2023-04-25T10:32:44;2.45;;;1.72;;
23099;SDS011;53791;50.696;4.396;2023-04-25T10:35:18;1.80;;;1.20;;
23099;SDS011;53791;50.696;4.396;2023-04-25T10:37:57;4.65;;;1.27;;
23099;SDS011;53791;50.696;4.396;2023-04-25T10:40:26;1.80;;;1.22;;
23099;SDS011;53791;50.696;4.396;2023-04-25T10:42:54;2.30;;;1.57;;
23099;SDS011;53791;50.696;4.396;2023-04-25T10:45:22;3.50;;;1.55;;
23099;SDS011;53791;50.696;4.396;2023-04-25T10:47:49;2.50;;;1.40;;
23099;SDS011;53791;50.696;4.396;2023-04-25T10:50:22;2.27;;;1.40;;
23099;SDS011;53791;50.696;4.396;2023-04-25T10:52:46;2.10;;;1.32;;
23099;SDS011;53791;50.696;4.396;2023-04-25T10:55:13;2.05;;;1.52;;
23099;SDS011;53791;50.696;4.396;2023-04-25T10:57:42;2.12;;;1.37;;
23099;SDS011;53791;50.696;4.396;2023-04-25T11:00:13;2.00;;;1.40;;
23099;SDS011;53791;50.696;4.396;2023-04-25T11:02:43;1.80;;;1.12;;
23099;SDS011;53791;50.696;4.396;2023-04-25T11:05:20;1.65;;;0.93;;
23099;SDS011;53791;50.696;4.396;2023-04-25T11:07:52;10.60;;;1.55;;
23099;SDS011;53791;50.696;4.396;2023-04-25T11:10:29;1.70;;;1.00;;
23099;SDS011;53791;50.696;4.396;2023-04-25T11:13:00;1.60;;;0.90;;
23099;SDS011;53791;50.696;4.396;2023-04-25T11:15:28;1.60;;;0.88;;
23099;SDS011;53791;50.696;4.396;2023-04-25T11:17:55;1.67;;;0.98;;
23099;SDS011;53791;50.696;4.396;2023-04-25T11:20:25;2.05;;;1.20;;
23099;SDS011;53791;50.696;4.396;2023-04-25T11:22:54;2.33;;;1.10;;
23099;SDS011;53791;50.696;4.396;2023-04-25T11:25:34;2.37;;;1.30;;
23099;SDS011;53791;50.696;4.396;2023-04-25T11:28:03;1.60;;;0.85;;
23099;SDS011;53791;50.696;4.396;2023-04-25T11:30:31;2.12;;;1.15;;
23099;SDS011;53791;50.696;4.396;2023-04-25T11:33:00;1.50;;;0.80;;
23099;SDS011;53791;50.696;4.396;2023-04-25T11:35:29;2.10;;;1.17;;
23099;SDS011;53791;50.696;4.396;2023-04-25T11:37:57;1.47;;;0.93;;
23099;SDS011;53791;50.696;4.396;2023-04-25T11:40:26;2.33;;;1.35;;
23099;SDS011;53791;50.696;4.396;2023-04-25T11:42:53;3.47;;;1.60;;
23099;SDS011;53791;50.696;4.396;2023-04-25T11:45:21;2.52;;;1.20;;
23099;SDS011;53791;50.696;4.396;2023-04-25T11:47:50;2.05;;;1.15;;
23099;SDS011;53791;50.696;4.396;2023-04-25T11:50:19;1.92;;;1.15;;
23099;SDS011;53791;50.696;4.396;2023-04-25T11:52:51;1.80;;;0.98;;
23099;SDS011;53791;50.696;4.396;2023-04-25T11:55:16;3.35;;;1.35;;
23099;SDS011;53791;50.696;4.396;2023-04-25T11:57:46;1.70;;;1.00;;
23099;SDS011;53791;50.696;4.396;2023-04-25T12:00:17;1.62;;;1.02;;
23099;SDS011;53791;50.696;4.396;2023-04-25T12:02:47;2.40;;;1.10;;
23099;SDS011;53791;50.696;4.396;2023-04-25T12:05:24;22.17;;;1.55;;
23099;SDS011;53791;50.696;4.396;2023-04-25T12:07:53;1.60;;;1.00;;
23099;SDS011;53791;50.696;4.396;2023-04-25T12:10:21;1.80;;;1.15;;
23099;SDS011;53791;50.696;4.396;2023-04-25T12:12:51;1.50;;;0.90;;
23099;SDS011;53791;50.696;4.396;2023-04-25T12:15:23;1.70;;;1.10;;
23099;SDS011;53791;50.696;4.396;2023-04-25T12:17:53;1.95;;;1.00;;
23099;SDS011;53791;50.696;4.396;2023-04-25T12:20:23;1.70;;;1.02;;
23099;SDS011;53791;50.696;4.396;2023-04-25T12:22:53;1.70;;;1.00;;
23099;SDS011;53791;50.696;4.396;2023-04-25T12:28:23;1.60;;;0.90;;
23099;SDS011;53791;50.696;4.396;2023-04-25T12:33:35;1.60;;;1.02;;
23099;SDS011;53791;50.696;4.396;2023-04-25T12:36:05;1.60;;;1.00;;
23099;SDS011;53791;50.696;4.396;2023-04-25T12:38:38;2.20;;;1.20;;
23099;SDS011;53791;50.696;4.396;2023-04-25T12:41:06;1.70;;;1.10;;
23099;SDS011;53791;50.696;4.396;2023-04-25T12:43:35;1.67;;;1.07;;
23099;SDS011;53791;50.696;4.396;2023-04-25T12:46:02;2.67;;;1.32;;
23099;SDS011;53791;50.696;4.396;2023-04-25T12:48:30;2.70;;;1.52;;
23099;SDS011;53791;50.696;4.396;2023-04-25T12:50:57;1.70;;;1.00;;
23099;SDS011;53791;50.696;4.396;2023-04-25T12:53:26;2.05;;;1.27;;
23099;SDS011;53791;50.696;4.396;2023-04-25T12:55:56;1.40;;;0.80;;
23099;SDS011;53791;50.696;4.396;2023-04-25T12:58:23;1.95;;;1.20;;
23099;SDS011;53791;50.696;4.396;2023-04-25T13:00:54;2.33;;;1.22;;
23099;SDS011;53791;50.696;4.396;2023-04-25T13:03:21;1.95;;;0.98;;
23099;SDS011;53791;50.696;4.396;2023-04-25T13:05:49;1.60;;;0.93;;
23099;SDS011;53791;50.696;4.396;2023-04-25T13:08:18;1.70;;;0.90;;
23099;SDS011;53791;50.696;4.396;2023-04-25T13:10:51;1.60;;;1.00;;
23099;SDS011;53791;50.696;4.396;2023-04-25T13:13:17;2.67;;;1.20;;
23099;SDS011;53791;50.696;4.396;2023-04-25T13:15:46;1.60;;;0.90;;
23099;SDS011;53791;50.696;4.396;2023-04-25T13:18:14;1.57;;;0.80;;
23099;SDS011;53791;50.696;4.396;2023-04-25T13:20:45;1.60;;;0.90;;
23099;SDS011;53791;50.696;4.396;2023-04-25T13:23:12;1.47;;;0.82;;
23099;SDS011;53791;50.696;4.396;2023-04-25T13:25:40;1.57;;;0.95;;
23099;SDS011;53791;50.696;4.396;2023-04-25T13:28:07;1.62;;;0.88;;
23099;SDS011;53791;50.696;4.396;2023-04-25T13:30:37;1.50;;;0.90;;
23099;SDS011;53791;50.696;4.396;2023-04-25T13:33:04;5.80;;;1.35;;
23099;SDS011;53791;50.696;4.396;2023-04-25T13:35:32;2.17;;;1.15;;
23099;SDS011;53791;50.696;4.396;2023-04-25T13:38:01;1.47;;;0.72;;
23099;SDS011;53791;50.696;4.396;2023-04-25T13:40:29;1.92;;;1.00;;
23099;SDS011;53791;50.696;4.396;2023-04-25T13:42:58;1.50;;;0.90;;
23099;SDS011;53791;50.696;4.396;2023-04-25T13:45:26;1.32;;;0.70;;
23099;SDS011;53791;50.696;4.396;2023-04-25T13:47:53;1.57;;;0.80;;
23099;SDS011;53791;50.696;4.396;2023-04-25T13:50:21;1.50;;;0.82;;
23099;SDS011;53791;50.696;4.396;2023-04-25T13:52:48;1.65;;;1.00;;
23099;SDS011;53791;50.696;4.396;2023-04-25T13:55:16;2.05;;;1.00;;
23099;SDS011;53791;50.696;4.396;2023-04-25T13:57:45;1.40;;;0.75;;
23099;SDS011;53791;50.696;4.396;2023-04-25T14:00:13;3.22;;;1.40;;
23099;SDS011;53791;50.696;4.396;2023-04-25T14:02:42;1.70;;;1.05;;
23099;SDS011;53791;50.696;4.396;2023-04-25T14:05:09;1.80;;;1.05;;
23099;SDS011;53791;50.696;4.396;2023-04-25T14:07:37;2.42;;;1.20;;
23099;SDS011;53791;50.696;4.396;2023-04-25T14:10:05;1.80;;;0.93;;
23099;SDS011;53791;50.696;4.396;2023-04-25T14:12:33;1.57;;;0.95;;
23099;SDS011;53791;50.696;4.396;2023-04-25T14:15:00;2.67;;;1.00;;
23099;SDS011;53791;50.696;4.396;2023-04-25T14:17:30;2.45;;;1.35;;
23099;SDS011;53791;50.696;4.396;2023-04-25T14:19:58;1.57;;;0.90;;
23099;SDS011;53791;50.696;4.396;2023-04-25T14:22:25;1.77;;;1.15;;
23099;SDS011;53791;50.696;4.396;2023-04-25T14:24:53;2.75;;;1.50;;
23099;SDS011;53791;50.696;4.396;2023-04-25T14:27:20;1.50;;;0.90;;
23099;SDS011;53791;50.696;4.396;2023-04-25T14:29:48;2.12;;;0.90;;
23099;SDS011;53791;50.696;4.396;2023-04-25T14:32:16;1.80;;;0.95;;
23099;SDS011;53791;50.696;4.396;2023-04-25T14:34:43;2.67;;;1.27;;
23099;SDS011;53791;50.696;4.396;2023-04-25T14:37:11;1.60;;;1.00;;
23099;SDS011;53791;50.696;4.396;2023-04-25T14:39:38;1.65;;;0.95;;
23099;SDS011;53791;50.696;4.396;2023-04-25T14:42:06;2.12;;;0.95;;
23099;SDS011;53791;50.696;4.396;2023-04-25T14:44:37;1.40;;;0.75;;
23099;SDS011;53791;50.696;4.396;2023-04-25T14:47:05;1.37;;;0.70;;
23099;SDS011;53791;50.696;4.396;2023-04-25T14:49:33;2.00;;;0.82;;
23099;SDS011;53791;50.696;4.396;2023-04-25T14:52:00;1.30;;;0.62;;
23099;SDS011;53791;50.696;4.396;2023-04-25T14:54:28;1.50;;;0.72;;
23099;SDS011;53791;50.696;4.396;2023-04-25T14:56:56;2.40;;;1.45;;
23099;SDS011;53791;50.696;4.396;2023-04-25T14:59:23;1.60;;;0.90;;
23099;SDS011;53791;50.696;4.396;2023-04-25T15:01:58;1.82;;;0.93;;